NMSU Main Campus Data

Date Time Air Temperature Relative Humidity Dewpoint Heat Index Wind Speed Wind Dir. Rain Solar Radiation
2m 2m 3m 3m
US/Mountain F % F F MPH deg in MJ/m^2
max avg avg
2021-05-04 00:05:00 64.5 24.2 27.1 64.5 4.6 5.5 3.1 321.9 347.3 0.00 0.0000000
2021-05-04 00:10:00 64.5 24.3 27.2 64.5 2.8 4.9 3.1 298.2 324.6 0.00 0.0000000
2021-05-04 00:15:00 64.7 24.8 27.9 64.7 1.5 4.0 2.3 296.0 284.0 0.00 0.0000000
2021-05-04 00:20:00 64.7 25.9 28.9 64.7 1.0 4.7 2.4 268.2 293.9 0.00 0.0000000
2021-05-04 00:25:00 64.1 25.0 27.5 64.1 0.0 2.2 0.9 258.3 278.9 0.00 0.0000000
2021-05-04 00:30:00 63.8 25.3 27.6 63.8 0.0 0.8 0.0 190.5 233.6 0.00 0.0000000
2021-05-04 00:35:00 63.5 26.7 28.6 63.5 0.8 2.1 0.4 153.0 202.6 0.00 0.0000000
2021-05-04 00:40:00 63.1 27.1 28.6 63.1 0.0 3.1 2.2 169.0 143.7 0.00 0.0000000
2021-05-04 00:45:00 62.4 27.9 28.8 62.4 0.0 2.4 0.9 137.6 176.4 0.00 0.0000000
2021-05-04 00:50:00 61.9 27.5 28.0 61.9 2.4 2.4 1.1 126.4 128.7 0.00 0.0000000
2021-05-04 00:55:00 61.5 27.8 27.9 61.5 0.0 1.9 0.3 117.0 149.2 0.00 0.0000000
2021-05-04 01:00:00 61.1 28.8 28.4 61.1 0.0 1.3 0.2 248.3 161.9 0.00 0.0000020
2021-05-04 01:05:00 60.9 32.1 30.8 60.9 0.8 2.1 0.2 188.1 155.7 0.00 0.0000000
2021-05-04 01:10:00 60.5 35.9 33.4 60.5 0.8 1.7 0.6 129.7 112.0 0.00 0.0000020
2021-05-04 01:15:00 60.2 38.5 34.8 60.2 0.0 2.1 0.8 109.6 128.5 0.00 0.0000000
2021-05-04 01:20:00 59.8 40.1 35.4 59.8 0.0 1.7 0.6 128.5 126.5 0.00 0.0000000
2021-05-04 01:25:00 59.7 42.1 36.6 59.7 0.0 1.0 0.1 175.7 109.4 0.00 0.0000000
2021-05-04 01:30:00 59.4 44.9 38.0 59.4 0.0 0.8 0.1 146.9 156.0 0.00 0.0000000
2021-05-04 01:35:00 58.9 45.1 37.7 58.9 0.0 1.9 0.4 158.9 124.0 0.00 0.0000000
2021-05-04 01:40:00 58.9 46.3 38.3 58.9 0.0 3.1 0.4 142.1 123.8 0.00 0.0000000
2021-05-04 01:45:00 58.8 47.4 38.9 58.8 1.0 1.3 0.3 195.9 200.3 0.00 0.0000000
2021-05-04 01:50:00 58.4 48.8 39.2 58.4 0.0 0.0 0.0 5.5 0.0 0.00 0.0000000
2021-05-04 01:55:00 58.3 48.3 38.8 58.3 0.0 0.0 0.0 196.3 0.0 0.00 0.0000000
2021-05-04 02:00:00 58.1 48.3 38.6 58.1 0.0 0.0 0.0 191.8 0.0 0.00 0.0000000
2021-05-04 02:05:00 57.8 48.9 38.8 57.8 0.0 0.0 0.0 180.4 0.0 0.00 0.0000040
2021-05-04 02:10:00 57.2 49.7 38.6 57.2 0.0 0.0 0.0 195.7 0.0 0.00 0.0000020
2021-05-04 02:15:00 57.4 50.6 39.2 57.4 0.0 0.0 0.0 202.0 0.0 0.00 0.0000000
2021-05-04 02:20:00 56.9 51.3 39.1 56.9 0.0 0.0 0.0 207.6 0.0 0.00 0.0000000
2021-05-04 02:25:00 56.7 51.8 39.2 56.7 0.0 2.1 0.3 298.8 220.6 0.00 0.0000060
2021-05-04 02:30:00 56.4 52.1 39.0 56.4 0.0 0.0 0.0 125.2 0.0 0.00 0.0000020
2021-05-04 02:35:00 56.0 53.4 39.3 56.0 0.0 0.0 0.0 124.8 0.0 0.00 0.0000020
2021-05-04 02:40:00 55.7 54.0 39.3 55.7 0.0 0.0 0.0 170.5 0.0 0.00 0.0000060
2021-05-04 02:45:00 55.5 54.0 39.2 55.5 0.0 0.0 0.0 200.5 0.0 0.00 0.0000000
2021-05-04 02:50:00 55.0 56.3 39.7 55.0 0.0 0.0 0.0 111.9 0.0 0.00 0.0000040
2021-05-04 02:55:00 54.6 56.2 39.4 54.6 0.0 0.0 0.0 0.0 0.0 0.00 0.0000040
2021-05-04 03:00:00 54.5 56.0 39.1 54.5 0.0 0.0 0.0 0.0 0.0 0.00 0.0000020
2021-05-04 03:05:00 54.3 56.8 39.3 54.3 0.0 0.0 0.0 26.8 0.0 0.00 0.0000020
2021-05-04 03:10:00 54.3 60.2 40.8 54.3 0.0 0.0 0.0 157.1 0.0 0.00 0.0000000
2021-05-04 03:15:00 54.3 57.8 39.7 54.3 0.0 0.0 0.0 232.8 0.0 0.00 0.0000000
2021-05-04 03:20:00 54.6 54.7 38.6 54.6 0.0 0.0 0.0 219.3 0.0 0.00 0.0000000
2021-05-04 03:25:00 54.8 54.5 38.8 54.8 0.0 0.0 0.0 178.6 0.0 0.00 0.0000000
2021-05-04 03:30:00 54.8 55.0 38.9 54.8 0.0 0.0 0.0 241.6 0.0 0.00 0.0000000
2021-05-04 03:35:00 54.5 56.1 39.2 54.5 0.0 0.0 0.0 266.6 0.0 0.00 0.0000020
2021-05-04 03:40:00 53.9 56.5 38.8 53.9 0.0 0.0 0.0 214.3 0.0 0.00 0.0000000
2021-05-04 03:45:00 53.9 56.4 38.8 53.9 0.0 0.0 0.0 267.2 0.0 0.00 0.0000000
2021-05-04 03:50:00 54.0 56.8 39.0 54.0 0.0 0.8 0.1 152.1 258.8 0.00 0.0000020
2021-05-04 03:55:00 53.7 57.3 39.0 53.7 0.0 0.0 0.0 148.7 0.0 0.00 0.0000000
2021-05-04 04:00:00 53.5 58.2 39.1 53.5 0.0 0.0 0.0 28.5 0.0 0.00 0.0000000
2021-05-04 04:05:00 53.0 59.1 39.1 53.0 0.0 0.0 0.0 242.6 0.0 0.00 0.0000020
2021-05-04 04:10:00 52.8 59.7 39.2 52.8 0.0 0.0 0.0 118.4 0.0 0.00 0.0000000
2021-05-04 04:15:00 53.0 59.2 39.1 53.0 0.0 0.0 0.0 66.2 0.0 0.00 0.0000020
2021-05-04 04:20:00 52.8 59.4 39.1 52.8 0.0 0.0 0.0 41.3 0.0 0.00 0.0000000
2021-05-04 04:25:00 53.1 59.1 39.2 53.1 0.0 0.0 0.0 60.5 0.0 0.00 0.0000000
2021-05-04 04:30:00 53.6 58.8 39.6 53.6 0.0 0.0 0.0 53.0 0.0 0.00 0.0000000
2021-05-04 04:35:00 53.9 56.9 38.9 53.9 1.2 4.2 2.6 335.2 7.1 0.00 0.0000000
2021-05-04 04:40:00 54.0 56.9 39.1 54.0 3.3 5.3 3.8 336.5 321.4 0.00 0.0000000
2021-05-04 04:45:00 54.1 56.5 39.0 54.1 2.1 3.7 2.2 320.4 312.7 0.00 0.0000000
2021-05-04 04:50:00 54.2 56.1 38.9 54.2 3.7 5.1 2.8 279.6 289.2 0.00 0.0000000
2021-05-04 04:55:00 54.1 54.7 38.1 54.1 4.4 4.7 3.6 11.2 317.4 0.00 0.0000000
2021-05-04 05:00:00 54.5 53.3 37.9 54.5 4.9 8.7 5.4 315.1 321.6 0.00 0.0000000
2021-05-04 05:05:00 54.5 51.0 36.7 54.5 4.7 8.8 5.1 294.9 314.5 0.00 0.0000000
2021-05-04 05:10:00 54.5 49.1 35.8 54.5 6.2 9.6 5.2 308.1 302.2 0.00 0.0000000
2021-05-04 05:15:00 54.1 48.8 35.3 54.1 3.3 7.8 5.8 324.1 318.1 0.00 0.0000000
2021-05-04 05:20:00 53.5 51.3 35.9 53.5 3.1 6.7 4.8 339.8 329.9 0.00 0.0000000
2021-05-04 05:25:00 53.3 48.4 34.3 53.3 3.0 4.7 3.5 22.1 352.2 0.00 0.0000000
2021-05-04 05:30:00 53.3 48.7 34.5 53.3 0.0 3.1 1.2 87.5 35.1 0.00 0.0000000
2021-05-04 05:35:00 53.3 49.2 34.7 53.3 2.2 2.2 0.3 31.6 52.2 0.00 0.0000000
2021-05-04 05:40:00 53.3 50.5 35.4 53.3 0.8 2.4 0.2 334.6 53.8 0.00 0.0000000
2021-05-04 05:45:00 53.5 50.7 35.7 53.5 0.0 4.9 1.9 317.0 358.1 0.00 0.0000000
2021-05-04 05:50:00 53.2 54.5 37.1 53.2 6.2 6.2 2.3 0.9 323.9 0.00 0.0000000
2021-05-04 05:55:00 53.0 54.8 37.1 53.0 3.8 6.2 3.0 336.1 342.0 0.00 0.0000121
2021-05-04 06:00:00 53.0 56.2 37.8 53.0 1.5 4.7 1.9 9.2 338.8 0.00 0.0000523
2021-05-04 06:05:00 53.0 56.6 38.0 53.0 0.0 4.6 1.7 14.8 342.5 0.00 0.0001186
2021-05-04 06:10:00 52.8 55.8 37.5 52.8 1.0 1.2 0.3 30.8 7.8 0.00 0.0003358
2021-05-04 06:15:00 52.5 56.7 37.6 52.5 0.0 2.2 0.4 2.3 25.3 0.00 0.0006717
2021-05-04 06:20:00 52.9 56.6 37.9 52.9 0.0 3.3 0.8 100.3 39.7 0.00 0.0012770
2021-05-04 06:25:00 52.4 55.5 36.9 52.4 0.0 0.8 0.1 115.7 128.1 0.00 0.0020874
2021-05-04 06:30:00 52.3 53.7 36.0 52.3 1.3 2.6 0.5 291.3 305.7 0.00 0.0029842
2021-05-04 06:35:00 52.7 56.2 37.5 52.7 0.0 4.2 1.7 320.0 263.5 0.00 0.0039073
2021-05-04 06:40:00 52.7 56.5 37.6 52.7 0.0 2.2 0.3 211.3 240.1 0.00 0.0048202
2021-05-04 06:45:00 52.7 55.9 37.4 52.7 2.1 3.7 1.0 199.1 214.5 0.00 0.0057172
2021-05-04 06:50:00 52.0 55.3 36.5 52.0 1.2 2.6 1.2 197.7 145.6 0.00 0.0070465
2021-05-04 06:55:00 51.9 56.1 36.8 51.9 0.0 1.2 0.1 214.2 185.2 0.00 0.0076940
2021-05-04 07:00:00 52.3 58.1 38.0 52.3 3.3 4.4 1.6 304.4 297.6 0.00 0.0079174
2021-05-04 07:05:00 52.1 59.3 38.3 52.1 3.1 7.8 4.9 0.3 301.8 0.00 0.0100590
2021-05-04 07:10:00 52.3 58.3 38.1 52.3 1.0 6.3 1.4 270.6 304.7 0.00 0.0087780
2021-05-04 07:15:00 52.5 57.6 38.0 52.5 0.8 4.6 2.6 212.0 280.6 0.00 0.0096509
2021-05-04 07:20:00 52.6 57.5 38.0 52.6 3.1 4.7 2.6 303.0 281.9 0.00 0.0097112
2021-05-04 07:25:00 52.6 56.5 37.6 52.6 2.8 5.6 4.4 290.6 303.3 0.00 0.0105217
2021-05-04 07:30:00 52.7 57.6 38.1 52.7 6.5 8.0 5.3 315.1 309.4 0.00 0.0149237
2021-05-04 07:35:00 53.2 57.3 38.4 53.2 4.0 7.1 4.8 329.0 308.8 0.00 0.0337724
2021-05-04 07:40:00 53.3 56.7 38.3 53.3 4.2 6.7 4.1 311.9 319.0 0.00 0.0368408
2021-05-04 07:45:00 53.9 55.3 38.2 53.9 1.5 4.9 2.7 306.2 311.7 0.00 0.0657591
2021-05-04 07:50:00 54.0 55.0 38.2 54.0 6.5 6.5 4.2 322.5 325.2 0.00 0.0738547
2021-05-04 07:55:00 54.5 56.1 39.1 54.5 2.4 6.5 4.9 284.2 328.1 0.00 0.0792396
2021-05-04 08:00:00 54.9 52.4 37.8 54.9 4.7 6.3 4.6 315.6 334.8 0.00 0.0848003
2021-05-04 08:05:00 55.0 54.0 38.6 55.0 4.9 6.5 4.9 300.1 323.7 0.00 0.0900379
2021-05-04 08:10:00 55.3 52.1 38.0 55.3 2.2 7.2 4.4 2.3 331.4 0.00 0.0954290
2021-05-04 08:15:00 55.3 53.3 38.6 55.3 4.7 6.2 4.6 314.9 337.4 0.00 0.1007683
2021-05-04 08:20:00 55.5 52.7 38.5 55.5 4.4 6.7 4.9 279.0 310.9 0.00 0.1061287
2021-05-04 08:25:00 55.6 51.3 37.9 55.6 5.1 6.3 4.8 297.9 301.7 0.00 0.1115756
2021-05-04 08:30:00 55.4 50.5 37.3 55.4 4.4 7.1 5.3 8.9 324.3 0.00 0.1169443
2021-05-04 08:35:00 56.3 49.8 37.8 56.3 3.0 5.3 3.5 316.7 330.8 0.00 0.1222624
2021-05-04 08:40:00 56.4 49.3 37.6 56.4 5.5 6.3 4.5 307.4 351.5 0.00 0.1276554
2021-05-04 08:45:00 56.7 48.8 37.6 56.7 5.1 7.4 4.1 316.7 314.8 0.00 0.1330184
2021-05-04 08:50:00 57.0 50.0 38.5 57.0 2.6 5.8 3.4 304.2 307.9 0.00 0.1381606
2021-05-04 08:55:00 58.0 48.1 38.4 58.0 2.4 6.5 2.9 291.5 322.7 0.00 0.1434788
2021-05-04 09:00:00 59.4 44.9 37.9 59.4 0.0 2.8 0.6 15.5 346.4 0.00 0.1487857
2021-05-04 09:05:00 59.5 44.5 37.9 59.5 2.1 4.7 1.8 223.7 229.0 0.00 0.1540471
2021-05-04 09:10:00 59.3 44.9 37.9 59.3 3.1 4.6 2.6 167.9 173.3 0.00 0.1590156
2021-05-04 09:15:00 59.1 44.9 37.7 59.1 2.2 4.6 2.4 123.4 154.0 0.00 0.1639728
2021-05-04 09:20:00 59.6 44.9 38.2 59.6 1.3 3.8 1.0 248.8 242.1 0.00 0.1690162
2021-05-04 09:25:00 59.5 44.4 37.8 59.5 2.1 4.4 2.0 180.4 204.7 0.00 0.1739284
2021-05-04 09:30:00 60.7 43.8 38.6 60.7 0.8 1.3 0.4 295.8 145.0 0.00 0.1789217
2021-05-04 09:35:00 60.2 45.7 39.2 60.2 2.6 3.5 2.1 5.8 337.4 0.00 0.1838690
2021-05-04 09:40:00 61.3 43.1 38.7 61.3 1.2 2.8 0.9 308.9 6.1 0.00 0.1886546
2021-05-04 09:45:00 61.3 42.5 38.3 61.3 1.0 4.7 1.3 288.8 298.3 0.00 0.1932305
2021-05-04 09:50:00 61.7 41.4 38.0 61.7 1.9 5.1 1.7 182.3 247.8 0.00 0.1977608
2021-05-04 09:55:00 61.6 41.6 38.0 61.6 1.3 4.0 1.4 337.4 250.5 0.00 0.2022202
2021-05-04 10:00:00 63.1 40.2 38.5 63.1 1.3 2.8 1.2 107.0 113.6 0.00 0.2067185
2021-05-04 10:05:00 63.9 38.9 38.3 63.9 0.0 4.2 0.9 189.8 94.2 0.00 0.2108647
2021-05-04 10:10:00 63.5 41.0 39.4 63.5 0.0 5.6 1.5 241.6 255.3 0.00 0.2150750
2021-05-04 10:15:00 64.5 39.4 39.2 64.5 2.6 5.8 1.7 113.4 147.2 0.00 0.2193766
2021-05-04 10:20:00 63.8 38.4 38.0 63.8 1.9 4.2 2.2 100.2 127.6 0.00 0.2232490
2021-05-04 10:25:00 63.8 40.2 39.1 63.8 0.0 3.7 2.0 331.3 33.9 0.00 0.2271126
2021-05-04 10:30:00 65.1 37.6 38.6 65.1 0.8 2.8 0.9 136.9 122.9 0.00 0.2311707
2021-05-04 10:35:00 66.0 36.7 38.8 66.0 1.2 4.6 1.4 205.8 118.3 0.00 0.2350141
2021-05-04 10:40:00 64.9 37.8 38.5 64.9 3.5 4.6 3.3 154.0 198.1 0.00 0.2383278
2021-05-04 10:45:00 65.4 37.1 38.5 65.4 0.0 3.8 2.0 231.9 92.2 0.00 0.2416061
2021-05-04 10:50:00 65.2 38.9 39.5 65.2 3.5 5.6 3.0 254.1 240.4 0.00 0.2449277
2021-05-04 10:55:00 65.1 38.4 39.1 65.1 4.0 5.5 3.3 316.8 286.8 0.00 0.2481916
2021-05-04 11:00:00 65.5 38.2 39.4 65.5 4.0 4.9 2.7 32.1 17.3 0.00 0.2512864
2021-05-04 11:05:00 66.3 35.7 38.3 66.3 0.0 3.8 1.4 207.4 14.2 0.00 0.2544606
2021-05-04 11:10:00 67.3 34.1 38.0 67.3 0.0 4.7 1.9 300.1 167.9 0.00 0.2581614
2021-05-04 11:15:00 68.1 33.9 38.6 68.1 4.0 4.4 1.6 236.7 230.7 0.00 0.2610327
2021-05-04 11:20:00 67.0 34.7 38.2 67.0 1.3 5.5 3.4 314.2 301.4 0.00 0.2637316
2021-05-04 11:25:00 68.1 34.0 38.7 68.1 1.9 4.0 2.2 25.9 28.1 0.00 0.2664241
2021-05-04 11:30:00 68.9 30.9 36.9 68.9 1.5 5.5 2.1 205.5 111.9 0.00 0.2684431
2021-05-04 11:35:00 67.3 33.4 37.6 67.3 3.7 5.1 3.3 273.7 240.3 0.00 0.2709859
2021-05-04 11:40:00 67.2 33.3 37.3 67.2 7.2 7.2 4.2 31.2 298.2 0.00 0.2724712
2021-05-04 11:45:00 67.3 34.0 38.0 67.3 5.6 6.5 4.5 265.9 17.0 0.00 0.2743741
2021-05-04 11:50:00 68.0 33.5 38.2 68.0 2.8 6.5 4.0 339.5 288.4 0.00 0.2760716
2021-05-04 11:55:00 68.8 34.1 39.4 68.8 3.0 5.8 4.1 156.5 279.6 0.00 0.2781313
2021-05-04 12:00:00 69.4 33.8 39.7 69.4 4.6 6.9 3.0 190.9 162.6 0.00 0.2804111
2021-05-04 12:05:00 70.4 31.2 38.5 70.4 4.0 5.1 2.9 211.3 214.0 0.00 0.2827203
2021-05-04 12:10:00 69.4 31.9 38.2 69.4 2.1 4.6 2.4 185.4 192.8 0.00 0.2842258
2021-05-04 12:15:00 71.7 29.1 37.9 71.7 4.0 4.9 2.5 171.3 201.7 0.00 0.2861097
2021-05-04 12:20:00 71.2 29.3 37.6 71.2 2.2 6.0 4.0 209.3 207.2 0.00 0.2874343
2021-05-04 12:25:00 71.5 29.5 38.0 71.5 1.7 6.2 2.6 156.8 161.8 0.00 0.2882909
2021-05-04 12:30:00 70.5 29.8 37.4 70.5 4.4 8.0 4.2 241.3 202.3 0.00 0.2894742
2021-05-04 12:35:00 69.7 31.4 38.0 69.7 3.3 4.2 2.7 20.9 346.5 0.00 0.2896575
2021-05-04 12:40:00 71.1 31.0 38.9 71.1 2.1 3.0 1.2 337.2 18.8 0.00 0.2904936
2021-05-04 12:45:00 70.8 29.8 37.7 70.8 2.1 6.3 3.0 82.5 179.1 0.00 0.2919270
2021-05-04 12:50:00 72.1 29.9 38.8 72.1 4.0 6.2 3.6 141.3 155.4 0.00 0.2925700
2021-05-04 12:55:00 72.2 28.8 37.9 72.2 6.0 6.0 3.7 194.5 142.6 0.00 0.2929625
2021-05-04 13:00:00 71.2 29.1 37.4 71.2 3.3 9.2 4.5 229.1 234.7 0.00 0.2920913
2021-05-04 13:05:00 73.1 26.2 36.4 73.1 2.6 6.0 2.5 111.1 162.4 0.00 0.2915805
2021-05-04 13:10:00 72.7 29.1 38.7 72.7 4.2 8.5 4.3 229.7 179.7 0.00 0.2923781
2021-05-04 13:15:00 73.0 27.9 37.9 73.0 3.7 8.8 4.6 128.2 224.1 0.00 0.2924772
2021-05-04 13:20:00 73.7 26.4 37.1 73.7 3.3 6.9 2.9 85.4 136.4 0.00 0.2932284
2021-05-04 13:25:00 74.1 26.8 37.9 74.1 3.7 6.3 2.9 140.2 147.4 0.00 0.2934075
2021-05-04 13:30:00 74.1 25.8 36.8 74.1 2.4 5.3 3.3 111.8 139.6 0.00 0.2925690
2021-05-04 13:35:00 73.9 30.1 40.6 73.9 1.7 3.8 1.8 9.3 197.2 0.00 0.2915529
2021-05-04 13:40:00 74.6 24.8 36.3 74.6 3.5 6.5 3.9 104.2 126.5 0.00 0.2632662
2021-05-04 13:45:00 74.3 25.6 36.9 74.3 4.6 6.7 3.8 167.9 138.7 0.00 0.2902555
2021-05-04 13:50:00 74.8 24.2 35.8 74.8 5.3 6.7 4.7 191.8 187.5 0.00 0.2891644
2021-05-04 13:55:00 73.8 25.3 36.1 73.8 6.2 6.2 3.8 207.9 218.7 0.00 0.2879526
2021-05-04 14:00:00 73.7 27.3 37.9 73.7 1.3 7.1 4.5 223.2 226.0 0.00 0.2869054
2021-05-04 14:05:00 74.6 27.6 39.0 74.6 1.3 3.8 1.8 298.8 188.8 0.00 0.2858491
2021-05-04 14:10:00 75.4 23.5 35.5 75.4 1.0 5.5 2.9 210.1 177.6 0.00 0.2843890
2021-05-04 14:15:00 74.8 24.2 35.8 74.8 4.7 7.4 4.5 189.5 114.4 0.00 0.2823845
2021-05-04 14:20:00 76.2 21.6 34.2 76.2 4.4 6.0 3.8 141.3 138.9 0.00 0.2807756
2021-05-04 14:25:00 75.0 21.9 33.5 75.0 0.0 4.9 2.4 314.2 128.7 0.00 0.2801150
2021-05-04 14:30:00 74.3 22.0 33.0 74.3 3.5 5.5 2.7 17.9 3.5 0.00 0.2790937
2021-05-04 14:35:00 74.0 22.8 33.7 74.0 3.3 6.0 3.4 337.5 328.8 0.00 0.2769228
2021-05-04 14:40:00 76.3 20.9 33.3 76.3 1.3 3.5 1.1 248.4 16.9 0.00 0.2740541
2021-05-04 14:45:00 74.8 21.4 32.8 74.8 2.2 8.8 5.0 286.8 301.2 0.00 0.2717546
2021-05-04 14:50:00 74.2 26.3 37.4 74.2 4.6 7.4 4.3 322.2 321.2 0.00 0.2697333
2021-05-04 14:55:00 74.2 20.4 31.0 74.2 2.1 8.1 4.7 229.4 283.9 0.00 0.2678976
2021-05-04 15:00:00 76.7 20.0 32.5 76.7 3.7 4.6 2.6 265.4 206.9 0.00 0.2660220
2021-05-04 15:05:00 76.7 20.5 33.2 76.7 3.1 6.2 4.6 303.9 245.2 0.00 0.2634853
2021-05-04 15:10:00 77.0 15.2 26.1 77.0 5.8 6.5 3.9 208.2 245.4 0.00 0.2602594
2021-05-04 15:15:00 76.7 15.8 26.9 76.7 6.3 7.4 4.6 203.5 223.9 0.00 0.2561922
2021-05-04 15:20:00 75.8 14.1 23.3 75.8 1.2 9.2 4.5 177.0 175.3 0.00 0.2507798
2021-05-04 15:25:00 76.6 17.5 29.2 76.6 0.0 6.3 1.1 106.3 310.2 0.00 0.2475927
2021-05-04 15:30:00 76.9 19.6 32.3 76.9 2.8 6.0 2.8 288.0 210.1 0.00 0.2452403
2021-05-04 15:35:00 77.1 18.9 31.5 77.1 4.4 7.4 4.1 211.3 260.7 0.00 0.2417391
2021-05-04 15:40:00 77.5 16.3 28.3 77.5 3.7 5.3 3.3 230.2 215.1 0.00 0.2377134
2021-05-04 15:45:00 77.6 17.5 30.0 77.6 3.0 4.6 2.7 293.3 240.5 0.00 0.2342451
2021-05-04 15:50:00 77.4 15.6 27.1 77.4 2.8 5.5 3.3 17.4 308.7 0.00 0.2305609
2021-05-04 15:55:00 76.8 14.6 24.9 76.8 4.9 7.6 4.5 202.2 214.9 0.00 0.2262207
2021-05-04 16:00:00 76.5 15.0 25.4 76.5 2.1 6.2 3.9 105.7 231.9 0.00 0.2224589
2021-05-04 16:05:00 77.7 15.4 26.9 77.7 4.0 7.1 2.8 227.0 257.5 0.00 0.2182855
2021-05-04 16:10:00 77.5 12.4 21.7 77.5 5.8 10.3 5.4 277.6 236.5 0.00 0.2140702
2021-05-04 16:15:00 77.0 13.6 23.4 77.0 3.8 9.0 5.5 195.4 246.6 0.00 0.2089341
2021-05-04 16:20:00 77.1 14.7 25.5 77.1 0.8 4.4 2.1 121.8 101.8 0.00 0.2043024
2021-05-04 16:25:00 77.1 17.4 29.5 77.1 3.3 7.6 4.1 292.1 248.5 0.00 0.2002844
2021-05-04 16:30:00 77.3 15.2 26.4 77.3 2.1 9.2 4.6 264.1 228.4 0.00 0.1953209
2021-05-04 16:35:00 77.7 15.1 26.5 77.7 3.1 3.1 1.6 128.0 190.6 0.00 0.1904523
2021-05-04 16:40:00 78.2 15.7 27.8 78.2 4.2 9.0 3.9 297.5 260.0 0.00 0.1857308
2021-05-04 16:45:00 77.4 15.6 27.0 77.4 3.7 10.1 6.3 259.3 297.3 0.00 0.1807134
2021-05-04 16:50:00 76.6 15.0 25.5 76.6 3.1 10.3 5.8 22.5 330.9 0.00 0.1755943
2021-05-04 16:55:00 77.4 15.2 26.5 77.4 3.0 5.6 2.2 221.5 319.8 0.00 0.1707800
2021-05-04 17:00:00 78.4 15.9 28.3 78.4 5.1 8.1 4.2 218.9 234.2 0.00 0.1656683
2021-05-04 17:05:00 78.4 16.3 28.9 78.4 3.0 6.2 3.1 253.5 227.6 0.00 0.1606783
2021-05-04 17:10:00 78.4 14.5 26.0 78.4 0.0 5.8 1.3 314.6 228.5 0.00 0.1557217
2021-05-04 17:15:00 78.9 15.7 28.4 78.9 1.5 6.3 2.7 250.3 280.6 0.00 0.1505246
2021-05-04 17:20:00 79.4 14.4 26.7 79.4 3.3 4.9 2.1 151.3 176.6 0.00 0.1451671
2021-05-04 17:25:00 79.6 14.0 26.2 79.6 4.2 4.2 2.5 159.9 163.0 0.00 0.1402127
2021-05-04 17:30:00 78.6 15.8 28.3 78.6 4.4 5.8 2.6 134.0 174.0 0.00 0.1346410
2021-05-04 17:35:00 78.6 15.6 28.0 78.6 1.7 4.9 2.9 236.2 199.0 0.00 0.1293934
2021-05-04 17:40:00 78.0 15.2 26.9 78.0 2.8 6.2 3.6 97.2 130.7 0.00 0.1239974
2021-05-04 17:45:00 78.2 14.7 26.2 78.2 1.3 3.5 2.1 111.8 152.5 0.00 0.1185591
2021-05-04 17:50:00 79.5 15.3 28.2 79.5 4.6 5.5 2.0 152.2 193.1 0.00 0.1132156
2021-05-04 17:55:00 79.4 15.9 29.1 79.4 5.3 6.3 3.6 192.1 184.3 0.00 0.1077660
2021-05-04 18:00:00 78.5 15.3 27.5 78.5 5.8 6.5 4.9 206.3 212.0 0.00 0.1023046
2021-05-04 18:05:00 78.2 15.0 26.7 78.2 1.7 6.7 4.1 273.3 214.7 0.00 0.0969569
2021-05-04 18:10:00 78.1 16.2 28.5 78.1 2.2 5.3 2.9 144.3 236.7 0.00 0.0917017
2021-05-04 18:15:00 78.4 15.5 27.7 78.4 3.1 5.1 2.8 125.6 184.8 0.00 0.0863871
2021-05-04 18:20:00 78.0 14.8 26.2 78.0 3.1 3.7 2.4 105.1 100.6 0.00 0.0810298
2021-05-04 18:25:00 77.6 15.0 26.3 77.6 2.1 4.6 2.9 333.3 59.7 0.00 0.0757377
2021-05-04 18:30:00 78.5 14.6 26.3 78.5 0.0 2.4 0.9 206.1 101.6 0.00 0.0703944
2021-05-04 18:35:00 78.1 15.1 26.8 78.1 0.0 4.7 1.6 233.4 98.6 0.00 0.0650963
2021-05-04 18:40:00 78.7 15.5 28.0 78.7 1.3 4.0 1.4 137.9 189.0 0.00 0.0600993
2021-05-04 18:45:00 78.9 14.6 26.6 78.9 0.8 3.8 1.2 130.9 173.3 0.00 0.0549549
2021-05-04 18:50:00 78.1 15.8 27.9 78.1 2.2 3.8 2.4 204.4 137.3 0.00 0.0497672
2021-05-04 18:55:00 77.8 15.6 27.4 77.8 2.1 3.8 1.4 122.0 140.8 0.00 0.0449663
2021-05-04 19:00:00 78.1 16.0 28.3 78.1 2.6 3.7 1.5 131.7 162.7 0.00 0.0403301
2021-05-04 19:05:00 77.2 16.4 28.1 77.2 0.0 4.2 2.3 146.9 140.2 0.00 0.0356812
2021-05-04 19:10:00 76.6 15.2 25.8 76.6 3.1 4.2 2.0 154.5 121.5 0.00 0.0307870
2021-05-04 19:15:00 76.8 18.8 31.2 76.8 1.0 3.3 1.0 141.8 130.0 0.00 0.0252302
2021-05-04 19:20:00 76.6 17.2 28.8 76.6 3.0 3.5 1.2 118.3 124.3 0.00 0.0199157
2021-05-04 19:25:00 76.1 16.6 27.5 76.1 2.8 4.0 2.1 123.9 129.9 0.00 0.0150047
2021-05-04 19:30:00 75.8 16.8 27.6 75.8 1.0 3.1 1.3 163.4 137.2 0.00 0.0074041
2021-05-04 19:35:00 75.5 16.4 26.8 75.5 1.3 3.8 2.1 126.9 136.6 0.00 0.0047167
2021-05-04 19:40:00 75.4 16.8 27.2 75.4 3.1 3.3 1.8 144.3 133.4 0.00 0.0037433
2021-05-04 19:45:00 74.8 17.3 27.5 74.8 1.9 3.3 1.7 123.5 137.5 0.00 0.0027980
2021-05-04 19:50:00 74.5 17.8 28.0 74.5 0.0 3.0 1.1 193.9 138.5 0.00 0.0018426
2021-05-04 19:55:00 74.2 18.4 28.5 74.2 1.0 3.0 1.2 213.9 140.5 0.00 0.0010819
2021-05-04 20:00:00 73.9 19.3 29.4 73.9 0.0 2.8 1.3 207.1 140.7 0.00 0.0005942
2021-05-04 20:05:00 73.4 18.5 27.9 73.4 1.3 2.4 0.6 140.7 138.1 0.00 0.0002911
2021-05-04 20:10:00 73.0 19.0 28.3 73.0 1.7 2.8 1.3 140.7 139.9 0.00 0.0001225
2021-05-04 20:15:00 72.9 19.6 29.0 72.9 1.9 3.1 1.3 129.3 136.7 0.00 0.0000100
2021-05-04 20:20:00 72.3 20.1 29.0 72.3 0.0 2.2 0.9 146.1 147.4 0.00 0.0000000
2021-05-04 20:25:00 71.9 20.0 28.7 71.9 0.8 2.2 0.7 126.2 140.4 0.00 0.0000000
2021-05-04 20:30:00 71.5 20.8 29.3 71.5 1.2 2.2 0.7 130.8 131.3 0.00 0.0000000
2021-05-04 20:35:00 71.2 21.5 29.9 71.2 0.8 2.6 0.9 173.3 146.3 0.00 0.0000000
2021-05-04 20:40:00 71.0 21.7 29.8 71.0 2.2 3.5 1.1 170.7 136.0 0.00 0.0000000
2021-05-04 20:45:00 70.8 22.3 30.4 70.8 2.6 2.8 1.7 160.1 135.8 0.00 0.0000000
2021-05-04 20:50:00 70.6 22.3 30.3 70.6 2.2 3.7 2.1 201.0 145.0 0.00 0.0000000
2021-05-04 20:55:00 70.2 22.9 30.5 70.2 1.9 2.2 1.2 142.5 137.5 0.00 0.0000000
2021-05-04 21:00:00 69.9 24.1 31.5 69.9 0.0 1.3 0.2 121.5 136.8 0.00 0.0000000
2021-05-04 21:05:00 69.1 25.5 32.3 69.1 0.0 0.0 0.0 126.4 0.0 0.00 0.0000000
2021-05-04 21:10:00 68.8 24.4 30.9 68.8 0.0 1.9 0.4 136.8 147.0 0.00 0.0000000
2021-05-04 21:15:00 69.0 24.7 31.4 69.0 0.0 1.3 0.1 110.3 134.1 0.00 0.0000000
2021-05-04 21:20:00 68.5 24.9 31.2 68.5 0.8 2.1 0.6 168.1 143.0 0.00 0.0000000
2021-05-04 21:25:00 68.7 25.4 31.8 68.7 0.0 1.9 0.4 144.1 149.7 0.00 0.0000000
2021-05-04 21:30:00 68.2 25.3 31.3 68.2 0.0 1.5 0.4 140.8 135.4 0.00 0.0000000
2021-05-04 21:35:00 68.4 25.1 31.3 68.4 0.0 2.2 0.5 117.1 138.2 0.00 0.0000000
2021-05-04 21:40:00 68.1 25.3 31.2 68.1 0.0 1.2 0.2 161.0 133.8 0.00 0.0000000
2021-05-04 21:45:00 68.2 24.9 31.0 68.2 2.8 3.3 1.2 105.0 120.4 0.00 0.0000000
2021-05-04 21:50:00 68.5 25.3 31.5 68.5 0.0 4.2 1.8 106.3 128.4 0.00 0.0000000
2021-05-04 21:55:00 68.6 24.3 30.7 68.6 0.0 2.1 0.9 112.2 140.1 0.00 0.0000000
2021-05-04 22:00:00 68.3 23.2 29.3 68.3 1.0 1.9 0.5 137.8 134.0 0.00 0.0000000
2021-05-04 22:05:00 68.2 23.4 29.4 68.2 0.0 2.8 1.0 131.1 124.0 0.00 0.0000000
2021-05-04 22:10:00 67.7 23.6 29.2 67.7 2.4 2.4 0.6 113.3 123.6 0.00 0.0000000
2021-05-04 22:15:00 67.5 23.4 28.8 67.5 0.0 2.6 1.0 156.8 122.8 0.00 0.0000000
2021-05-04 22:20:00 67.6 23.4 28.9 67.6 0.0 1.9 0.6 144.0 129.6 0.00 0.0000000
2021-05-04 22:25:00 67.3 23.5 28.7 67.3 2.6 3.1 0.5 127.6 126.7 0.00 0.0000000
2021-05-04 22:30:00 67.3 23.2 28.4 67.3 0.0 1.3 0.2 126.9 129.9 0.00 0.0000000
2021-05-04 22:35:00 67.1 23.2 28.3 67.1 0.0 1.9 0.6 157.1 131.8 0.00 0.0000000
2021-05-04 22:40:00 67.3 23.2 28.4 67.3 0.0 1.7 0.4 136.2 137.8 0.00 0.0000000
2021-05-04 22:45:00 67.2 23.4 28.5 67.2 0.0 1.0 0.1 164.9 128.7 0.00 0.0000000
2021-05-04 22:50:00 67.0 23.1 28.0 67.0 0.0 3.1 0.9 150.5 121.3 0.00 0.0000000
2021-05-04 22:55:00 67.0 23.0 28.0 67.0 0.0 1.0 0.1 128.4 140.3 0.00 0.0000000
2021-05-04 23:00:00 66.6 22.9 27.5 66.6 1.3 1.3 0.1 120.3 127.9 0.00 0.0000000
2021-05-04 23:05:00 66.4 23.8 28.3 66.4 0.0 1.2 0.1 181.8 140.9 0.00 0.0000000
2021-05-04 23:10:00 65.7 26.2 30.0 65.7 0.0 0.0 0.0 170.8 0.0 0.00 0.0000000
2021-05-04 23:15:00 65.0 25.3 28.6 65.0 0.0 0.8 0.0 146.6 128.1 0.00 0.0000000
2021-05-04 23:20:00 65.2 26.4 29.9 65.2 0.0 1.0 0.1 223.7 159.0 0.00 0.0000000
2021-05-04 23:25:00 64.7 26.4 29.4 64.7 0.0 0.0 0.0 183.5 0.0 0.00 0.0000000
2021-05-04 23:30:00 64.7 25.0 28.1 64.7 0.0 1.5 0.1 131.6 164.0 0.00 0.0000000
2021-05-04 23:35:00 65.6 23.9 27.8 65.6 2.4 6.0 1.8 128.0 125.8 0.00 0.0000000
2021-05-04 23:40:00 66.3 23.1 27.4 66.3 2.4 4.4 1.5 109.2 123.5 0.00 0.0000000
2021-05-04 23:45:00 66.5 22.9 27.3 66.5 0.0 3.1 1.2 102.2 131.5 0.00 0.0000000
2021-05-04 23:50:00 66.0 23.1 27.1 66.0 0.0 0.0 0.0 168.1 0.0 0.00 0.0000000
2021-05-04 23:55:00 65.4 24.1 27.8 65.4 0.0 0.0 0.0 202.9 0.0 0.00 0.0000000
2021-05-05 00:00:00 65.0 25.8 29.1 65.0 0.0 0.0 0.0 148.8 0.0 0.00 0.0000000

Data is courtesy of the NM Climate Center. DO NOT USE IN LEGAL PROCEEDINGS.